Time;durP1;ratioP1;P1;durP2;ratioP2;P2;SDS_P1;SDS_P2;PMS_P1;PMS_P2;Temp;Humidity;BMP_temperature;BMP_pressure;BME280_temperature;BME280_humidity;BME280_pressure;Samples;Min_cycle;Max_cycle;Signal;HPM_P1;HPM_P2
2022/11/07 00:00:21;;;;;;;33.10;14.53;;;;;8.20;96155.00;;;;10137035;23;20207;-69
2022/11/07 00:04:24;;;;;;;36.70;14.93;;;;;8.20;96159.00;;;;10087742;23;20196;-68
2022/11/07 00:08:30;;;;;;;33.90;14.60;;;;;8.20;96170.00;;;;10088424;23;20202;-68
2022/11/07 00:12:35;;;;;;;31.63;13.70;;;;;8.10;96181.00;;;;10136873;23;20411;-69
2022/11/07 00:16:40;;;;;;;32.10;14.27;;;;;8.20;96173.00;;;;10136654;23;20194;-69
2022/11/07 00:20:43;;;;;;;39.23;14.43;;;;;8.10;96176.00;;;;10136857;23;20195;-69
2022/11/07 00:25:20;;;;;;;37.70;15.23;;;;;8.10;96184.00;;;;10136647;23;20199;-69
2022/11/07 00:29:23;;;;;;;36.07;14.83;;;;;8.00;96167.00;;;;10136622;23;20202;-69
2022/11/07 00:33:27;;;;;;;34.97;15.17;;;;;7.90;96173.00;;;;10136530;23;20545;-69
2022/11/07 00:37:31;;;;;;;34.20;13.53;;;;;7.80;96187.00;;;;10137676;23;20194;-70
2022/11/07 00:42:07;;;;;;;32.90;14.03;;;;;7.80;96183.00;;;;10136201;23;20194;-69
2022/11/07 00:46:12;;;;;;;32.13;12.27;;;;;7.80;96183.00;;;;10136178;23;20198;-69
2022/11/07 00:50:16;;;;;;;26.20;11.70;;;;;7.90;96185.00;;;;10136442;23;20198;-69
2022/11/07 00:54:50;;;;;;;19.50;9.70;;;;;8.00;96194.00;;;;10136838;23;21809;-69
2022/11/07 00:58:54;;;;;;;16.87;8.80;;;;;8.10;96199.00;;;;10135131;23;20194;-69
2022/11/07 01:07:16;;;;;;;16.10;9.00;;;;;8.30;96216.00;;;;10134878;23;20554;-69
2022/11/07 01:11:19;;;;;;;16.37;8.43;;;;;8.30;96219.00;;;;10135372;23;20205;-68
2022/11/07 01:15:23;;;;;;;14.77;8.47;;;;;8.50;96220.00;;;;10135775;23;20225;-69
2022/11/07 01:19:56;;;;;;;14.67;8.07;;;;;8.60;96229.00;;;;10136190;23;20195;-68
2022/11/07 01:24:02;;;;;;;12.60;8.00;;;;;8.60;96217.00;;;;10135905;23;20186;-68
2022/11/07 01:28:06;;;;;;;16.40;7.37;;;;;8.60;96230.00;;;;10087120;23;20610;-69
2022/11/07 01:32:09;;;;;;;10.97;7.23;;;;;8.60;96227.00;;;;10086829;23;20202;-69
2022/11/07 01:36:15;;;;;;;12.20;7.43;;;;;8.60;96214.00;;;;10087347;23;20230;-68
2022/11/07 01:45:21;;;;;;;10.40;6.90;;;;;8.60;96217.00;;;;10135239;23;20610;-69
2022/11/07 01:49:31;;;;;;;11.32;7.18;;;;;8.70;96212.00;;;;10136109;23;20245;-69
2022/11/07 01:53:35;;;;;;;10.80;7.22;;;;;8.70;96220.00;;;;10129664;23;20204;-69
2022/11/07 01:57:46;;;;;;;10.50;6.70;;;;;8.80;96231.00;;;;10134179;23;20602;-69
2022/11/07 02:01:49;;;;;;;10.30;6.57;;;;;8.80;96228.00;;;;10135209;23;20210;-68
2022/11/07 02:06:06;;;;;;;8.40;6.13;;;;;8.70;96234.00;;;;10134555;23;20663;-68
2022/11/07 02:10:10;;;;;;;8.70;6.05;;;;;8.70;96234.00;;;;10088909;23;20195;-68
2022/11/07 02:14:17;;;;;;;8.38;6.40;;;;;8.70;96232.00;;;;10089904;23;20253;-68
2022/11/07 02:18:49;;;;;;;10.13;6.03;;;;;8.70;96228.00;;;;10089807;23;20203;-69
2022/11/07 02:22:56;;;;;;;12.27;6.15;;;;;8.70;96235.00;;;;10137897;23;20206;-69
2022/11/07 02:27:06;;;;;;;8.85;6.00;;;;;8.80;96242.00;;;;10138482;23;20205;-68
2022/11/07 02:31:09;;;;;;;8.70;6.10;;;;;8.80;96237.00;;;;10089454;23;20247;-69
2022/11/07 02:35:33;;;;;;;8.75;5.63;;;;;8.80;96244.00;;;;10090543;23;20210;-68
2022/11/07 02:39:37;;;;;;;8.77;5.72;;;;;8.80;96238.00;;;;10089693;23;20470;-69
2022/11/07 02:43:43;;;;;;;9.32;5.28;;;;;8.80;96238.00;;;;10137773;23;20245;-69
2022/11/07 02:47:47;;;;;;;7.30;5.30;;;;;8.80;96240.00;;;;10138839;23;20708;-69
2022/11/07 02:52:24;;;;;;;7.93;5.73;;;;;8.90;96249.00;;;;10137600;23;20203;-69
2022/11/07 02:56:27;;;;;;;8.85;5.55;;;;;8.90;96247.00;;;;10137132;23;20194;-69
2022/11/07 03:00:31;;;;;;;9.63;6.03;;;;;8.90;96246.00;;;;10137065;23;20206;-66
2022/11/07 03:04:34;;;;;;;9.60;5.47;;;;;8.90;96248.00;;;;10137511;23;20199;-69
2022/11/07 03:09:11;;;;;;;9.83;6.00;;;;;8.80;96248.00;;;;10137143;23;20197;-70
2022/11/07 03:13:14;;;;;;;8.90;5.63;;;;;8.80;96254.00;;;;10137475;23;20261;-67
2022/11/07 03:17:19;;;;;;;11.55;5.97;;;;;8.80;96259.00;;;;10136830;23;20277;-70
2022/11/07 03:21:22;;;;;;;10.32;6.00;;;;;8.70;96257.00;;;;10137177;23;20505;-70
2022/11/07 03:25:25;;;;;;;13.77;6.40;;;;;8.60;96265.00;;;;10136353;23;20476;-67
2022/11/07 03:29:28;;;;;;;9.90;5.83;;;;;8.50;96266.00;;;;10137425;23;20688;-68
2022/11/07 03:33:33;;;;;;;8.00;5.70;;;;;8.30;96271.00;;;;10136901;23;20609;-67
2022/11/07 03:37:36;;;;;;;7.13;5.10;;;;;8.20;96272.00;;;;10137049;23;20210;-68
2022/11/07 03:41:39;;;;;;;9.33;5.70;;;;;8.10;96280.00;;;;10137066;23;20199;-68
2022/11/07 03:45:42;;;;;;;11.63;6.43;;;;;7.90;96289.00;;;;10137281;23;20198;-68
2022/11/07 03:49:47;;;;;;;7.70;5.28;;;;;7.80;96288.00;;;;10136304;23;20199;-68
2022/11/07 03:53:50;;;;;;;7.75;5.32;;;;;7.70;96297.00;;;;10136294;23;20202;-68
2022/11/07 03:58:26;;;;;;;9.33;5.60;;;;;7.70;96295.00;;;;10133434;23;20202;-68
2022/11/07 04:02:29;;;;;;;11.23;5.93;;;;;7.80;96313.00;;;;10136235;23;20233;-67
2022/11/07 04:07:05;;;;;;;10.47;6.17;;;;;7.90;96309.00;;;;10136597;23;20493;-67
2022/11/07 04:17:17;;;;;;;10.90;6.15;;;;;8.00;96314.00;;;;10137066;23;20199;-67
2022/11/07 04:19:54;;;;;;;10.40;6.13;;;;;8.20;96304.00;;;;10136818;23;20190;-68
2022/11/07 04:23:59;;;;;;;9.25;6.43;;;;;8.20;96305.00;;;;10136480;23;20505;-68
2022/11/07 04:28:02;;;;;;;8.93;6.63;;;;;8.20;96298.00;;;;10137305;23;20248;-69
2022/11/07 04:32:39;;;;;;;10.83;6.37;;;;;8.00;96302.00;;;;10136826;23;20194;-68
2022/11/07 04:36:42;;;;;;;10.23;5.90;;;;;7.80;96308.00;;;;10134029;23;20198;-68
2022/11/07 04:40:53;;;;;;;12.70;5.60;;;;;7.60;96303.00;;;;10121524;23;20202;-69
2022/11/07 04:44:56;;;;;;;8.77;5.50;;;;;7.50;96312.00;;;;10131335;23;20198;-68
2022/11/07 04:48:59;;;;;;;7.53;5.03;;;;;7.20;96316.00;;;;10122496;23;20300;-68
2022/11/07 04:53:35;;;;;;;8.93;5.30;;;;;7.00;96316.00;;;;10135588;23;20207;-69
2022/11/07 04:58:14;;;;;;;10.37;5.27;;;;;6.90;96327.00;;;;10135819;23;20198;-69
2022/11/07 05:02:48;;;;;;;11.67;6.33;;;;;7.00;96330.00;;;;10134934;23;20198;-69
2022/11/07 05:06:51;;;;;;;10.80;6.03;;;;;7.20;96338.00;;;;10136085;23;20199;-69
2022/11/07 05:11:28;;;;;;;10.67;6.43;;;;;7.20;96332.00;;;;10134244;23;20233;-69
2022/11/07 05:16:10;;;;;;;9.57;6.03;;;;;7.30;96339.00;;;;10135573;23;20218;-69
2022/11/07 05:20:41;;;;;;;14.93;6.93;;;;;7.40;96333.00;;;;10133218;23;20221;-69
2022/11/07 05:25:18;;;;;;;20.67;7.77;;;;;7.50;96334.00;;;;10135738;23;20223;-70
2022/11/07 05:29:55;;;;;;;19.87;7.53;;;;;7.60;96341.00;;;;10134401;23;20202;-70
2022/11/07 05:33:59;;;;;;;76.47;43.47;;;;;7.70;96351.00;;;;10135180;23;20202;-70
2022/11/07 05:38:33;;;;;;;13.20;7.30;;;;;7.70;96353.00;;;;10135199;23;20201;-70
2022/11/07 05:43:09;;;;;;;12.20;7.23;;;;;7.60;96337.00;;;;10134221;23;20245;-70
2022/11/07 05:47:46;;;;;;;12.80;5.90;;;;;7.50;96350.00;;;;10137754;23;20198;-70
2022/11/07 05:52:25;;;;;;;10.87;6.07;;;;;7.50;96343.00;;;;10138805;23;20206;-70
2022/11/07 05:56:58;;;;;;;11.83;6.63;;;;;7.50;96348.00;;;;10136769;23;20194;-70
2022/11/07 06:01:35;;;;;;;9.93;6.13;;;;;7.60;96352.00;;;;10137450;23;20202;-70
2022/11/07 06:06:12;;;;;;;8.90;5.50;;;;;7.60;96355.00;;;;10138648;23;20195;-70
2022/11/07 06:10:51;;;;;;;9.33;6.40;;;;;7.50;96336.00;;;;10136828;23;20194;-70
2022/11/07 06:15:24;;;;;;;9.20;6.40;;;;;7.50;96353.00;;;;10137846;23;20195;-70
2022/11/07 06:20:01;;;;;;;16.57;12.80;;;;;7.50;96361.00;;;;10139257;23;20493;-70
2022/11/07 06:24:38;;;;;;;11.43;6.23;;;;;7.40;96357.00;;;;10138411;23;20625;-70
2022/11/07 06:29:16;;;;;;;16.67;10.93;;;;;7.30;96369.00;;;;10138897;23;20206;-70
2022/11/07 06:33:51;;;;;;;10.63;6.50;;;;;7.30;96371.00;;;;10137504;23;20250;-70
2022/11/07 06:38:15;;;;;;;8.20;5.47;;;;;7.20;96374.00;;;;10138584;23;20195;-70
2022/11/07 06:42:51;;;;;;;14.07;8.80;;;;;7.10;96368.00;;;;10126473;23;20277;-70
2022/11/07 06:47:30;;;;;;;8.37;5.70;;;;;7.10;96377.00;;;;10138494;23;20195;-70
2022/11/07 06:52:04;;;;;;;10.17;5.30;;;;;7.10;96377.00;;;;10138226;23;20202;-70
2022/11/07 06:56:41;;;;;;;15.63;6.10;;;;;7.20;96392.00;;;;10137780;23;20248;-70
2022/11/07 07:01:17;;;;;;;9.90;5.80;;;;;7.20;96396.00;;;;10138331;23;20238;-69
2022/11/07 07:05:59;;;;;;;13.53;6.60;;;;;7.40;96403.00;;;;10138427;23;20218;-70
2022/11/07 07:10:58;;;;;;;11.47;7.53;;;;;7.60;96405.00;;;;10137340;23;20514;-70
2022/11/07 07:15:01;;;;;;;12.07;7.07;;;;;8.00;96411.00;;;;10138722;23;20191;-70
2022/11/07 07:19:04;;;;;;;11.47;7.47;;;;;8.20;96410.00;;;;10138159;23;20198;-70
2022/11/07 07:23:43;;;;;;;10.43;7.20;;;;;8.50;96409.00;;;;10138230;23;20505;-70
2022/11/07 07:28:16;;;;;;;13.07;7.00;;;;;8.60;96414.00;;;;10137539;23;20597;-71
2022/11/07 07:32:53;;;;;;;7.88;6.30;;;;;8.60;96420.00;;;;10137850;23;20202;-71
2022/11/07 07:37:31;;;;;;;10.70;5.70;;;;;8.70;96421.00;;;;10132385;23;20191;-71
2022/11/07 07:42:07;;;;;;;12.30;5.77;;;;;8.90;96426.00;;;;10137585;23;20203;-70
2022/11/07 07:46:46;;;;;;;10.10;6.00;;;;;9.00;96419.00;;;;10138441;23;20191;-70
2022/11/07 07:51:20;;;;;;;8.07;5.32;;;;;9.20;96421.00;;;;10135622;23;20195;-71
2022/11/07 07:55:23;;;;;;;10.53;4.80;;;;;9.40;96412.00;;;;10136075;23;20541;-70
2022/11/07 07:59:26;;;;;;;6.35;5.20;;;;;9.60;96426.00;;;;10131908;23;20496;-70
2022/11/07 08:04:04;;;;;;;9.13;5.22;;;;;9.90;96419.00;;;;10136491;23;20198;-70
2022/11/07 08:08:38;;;;;;;11.02;5.10;;;;;10.10;96420.00;;;;10135761;23;20326;-70
2022/11/07 08:12:45;;;;;;;7.70;4.95;;;;;10.30;96434.00;;;;10134518;23;20254;-71
2022/11/07 08:17:18;;;;;;;8.95;5.32;;;;;10.40;96431.00;;;;10136828;23;20199;-70
2022/11/07 08:21:57;;;;;;;9.05;5.20;;;;;10.60;96430.00;;;;10136074;23;20244;-71
2022/11/07 08:26:31;;;;;;;7.57;4.88;;;;;10.70;96437.00;;;;10137663;23;20613;-70
2022/11/07 08:31:09;;;;;;;6.00;4.78;;;;;10.70;96435.00;;;;10136454;23;20198;-70
2022/11/07 08:35:43;;;;;;;5.18;4.53;;;;;10.90;96434.00;;;;10136180;23;20202;-70
2022/11/07 08:39:50;;;;;;;4.05;3.70;;;;;11.10;96439.00;;;;10136582;23;20201;-71
2022/11/07 08:44:24;;;;;;;5.50;4.45;;;;;11.20;96431.00;;;;10136302;23;20295;-70
2022/11/07 08:49:01;;;;;;;6.03;4.75;;;;;11.50;96442.00;;;;10136242;23;20204;-71
2022/11/07 08:53:04;;;;;;;11.30;5.50;;;;;11.70;96440.00;;;;10135222;23;20509;-70
2022/11/07 08:57:21;;;;;;;4.65;4.00;;;;;11.90;96449.00;;;;10136565;23;20204;-70
2022/11/07 09:01:54;;;;;;;7.65;3.88;;;;;12.10;96448.00;;;;10136082;23;20482;-70
2022/11/07 09:06:18;;;;;;;7.25;3.70;;;;;12.20;96448.00;;;;10135756;23;20205;-71
2022/11/07 09:10:54;;;;;;;4.30;3.42;;;;;12.40;96454.00;;;;10135521;23;20186;-71
2022/11/07 09:20:31;;;;;;;3.22;2.60;;;;;12.80;96450.00;;;;10086424;23;20194;-70
2022/11/07 09:25:05;;;;;;;3.03;2.47;;;;;13.00;96456.00;;;;10087574;23;20728;-70
2022/11/07 09:29:42;;;;;;;3.50;2.30;;;;;13.10;96452.00;;;;10134728;23;20226;-70
2022/11/07 09:34:18;;;;;;;4.90;2.10;;;;;13.20;96454.00;;;;10135556;23;20237;-70
2022/11/07 09:38:58;;;;;;;2.60;2.40;;;;;13.30;96455.00;;;;10134730;23;20191;-71
2022/11/07 09:43:44;;;;;;;2.25;1.85;;;;;13.60;96449.00;;;;10135945;23;20191;-71
2022/11/07 09:48:17;;;;;;;1.90;1.70;;;;;13.80;96451.00;;;;10131801;23;20617;-71
2022/11/07 09:52:48;;;;;;;2.95;2.35;;;;;13.90;96452.00;;;;10133719;23;20232;-70
2022/11/07 09:57:25;;;;;;;3.42;2.10;;;;;14.00;96454.00;;;;10135202;23;20299;-70
2022/11/07 10:01:58;;;;;;;2.70;1.95;;;;;14.10;96446.00;;;;10134706;23;20195;-72
2022/11/07 10:06:13;;;;;;;2.30;1.90;;;;;14.10;96451.00;;;;10135063;23;20198;-70
2022/11/07 10:10:43;;;;;;;1.77;1.67;;;;;14.20;96446.00;;;;10131535;23;20214;-70
2022/11/07 10:20:40;;;;;;;3.67;1.90;;;;;14.30;96446.00;;;;10124533;23;20229;-70
2022/11/07 10:25:18;;;;;;;2.75;2.10;;;;;14.30;96444.00;;;;10134813;23;20607;-70
2022/11/07 10:29:49;;;;;;;2.53;2.10;;;;;14.30;96445.00;;;;10085096;23;20207;-71
2022/11/07 10:34:30;;;;;;;6.80;2.15;;;;;14.40;96447.00;;;;10090275;23;20541;-71
2022/11/07 10:38:55;;;;;;;3.85;1.80;;;;;14.50;96445.00;;;;10137894;23;20445;-70
2022/11/07 10:43:33;;;;;;;3.00;1.40;;;;;14.60;96456.00;;;;10125639;23;20198;-70
2022/11/07 10:48:07;;;;;;;2.70;1.60;;;;;14.70;96450.00;;;;10135284;23;20194;-70
2022/11/07 10:52:51;;;;;;;2.85;1.80;;;;;14.90;96457.00;;;;10134628;23;20632;-72
2022/11/07 10:57:23;;;;;;;1.95;1.65;;;;;15.10;96460.00;;;;10137659;23;20190;-72
2022/11/07 11:01:58;;;;;;;1.58;1.50;;;;;15.30;96460.00;;;;10124576;23;20237;-72
2022/11/07 11:06:32;;;;;;;2.33;1.85;;;;;15.50;96461.00;;;;10137464;23;20234;-72
2022/11/07 11:11:13;;;;;;;3.83;1.60;;;;;15.70;96452.00;;;;10132280;23;20249;-70
2022/11/07 11:15:49;;;;;;;8.52;2.05;;;;;15.80;96452.00;;;;10137078;23;20195;-71
2022/11/07 11:19:57;;;;;;;1.70;1.45;;;;;15.90;96441.00;;;;10136686;23;20190;-70
2022/11/07 11:24:34;;;;;;;5.22;2.25;;;;;16.10;96437.00;;;;10088672;23;20283;-70
2022/11/07 11:29:10;;;;;;;5.47;1.80;;;;;16.20;96442.00;;;;10135015;23;20276;-70
2022/11/07 11:33:48;;;;;;;4.22;1.80;;;;;16.20;96426.00;;;;10136694;23;20254;-70
2022/11/07 11:38:19;;;;;;;1.83;1.70;;;;;16.30;96431.00;;;;10137081;23;20187;-70
2022/11/07 11:42:59;;;;;;;4.50;2.10;;;;;16.50;96418.00;;;;10135981;23;20191;-70
2022/11/07 11:47:35;;;;;;;4.38;2.22;;;;;16.70;96423.00;;;;10137216;23;20194;-71
2022/11/07 11:52:14;;;;;;;3.97;1.70;;;;;16.90;96412.00;;;;10136452;23;20199;-70
2022/11/07 11:56:50;;;;;;;3.38;1.58;;;;;16.90;96418.00;;;;10134341;23;20206;-70
2022/11/07 12:01:26;;;;;;;2.83;1.50;;;;;17.00;96408.00;;;;10137930;23;20198;-70
2022/11/07 12:06:09;;;;;;;3.25;1.63;;;;;16.70;96405.00;;;;10133662;23;20194;-70
2022/11/07 12:10:42;;;;;;;2.03;1.80;;;;;16.50;96400.00;;;;10136012;23;20589;-70
2022/11/07 12:15:13;;;;;;;2.67;1.50;;;;;16.50;96389.00;;;;10136108;23;20284;-70
2022/11/07 12:19:26;;;;;;;3.28;1.60;;;;;16.50;96387.00;;;;10136542;23;20194;-70
2022/11/07 12:23:56;;;;;;;3.28;1.70;;;;;16.50;96377.00;;;;10135552;23;20198;-70
2022/11/07 12:28:37;;;;;;;3.63;1.90;;;;;16.70;96389.00;;;;10136150;23;20659;-69
2022/11/07 12:33:12;;;;;;;2.50;1.60;;;;;16.60;96383.00;;;;10136244;23;20191;-70
2022/11/07 12:37:38;;;;;;;3.83;1.80;;;;;16.60;96378.00;;;;10135953;23;20210;-70
2022/11/07 12:41:51;;;;;;;2.22;1.70;;;;;16.50;96394.00;;;;10135571;23;20219;-70
2022/11/07 12:46:07;;;;;;;2.25;1.58;;;;;16.50;96385.00;;;;10136269;23;20256;-70
2022/11/07 12:50:33;;;;;;;3.55;1.80;;;;;16.40;96385.00;;;;10135836;23;20329;-71
2022/11/07 12:55:16;;;;;;;4.68;2.00;;;;;16.50;96379.00;;;;10135262;23;20194;-70
2022/11/07 12:59:50;;;;;;;3.92;1.80;;;;;16.30;96380.00;;;;10136082;23;20502;-70
2022/11/07 13:04:27;;;;;;;3.10;1.60;;;;;16.20;96386.00;;;;10134392;23;20198;-70
2022/11/07 13:09:05;;;;;;;5.50;2.38;;;;;16.10;96389.00;;;;10135122;23;20187;-70
2022/11/07 13:13:16;;;;;;;1.88;1.77;;;;;16.10;96392.00;;;;10136153;23;20502;-70
2022/11/07 13:17:22;;;;;;;2.83;1.98;;;;;16.10;96386.00;;;;10136060;23;20526;-70
2022/11/07 13:21:42;;;;;;;1.98;1.88;;;;;16.10;96372.00;;;;10136080;23;20520;-70
2022/11/07 13:26:05;;;;;;;2.30;2.10;;;;;16.20;96389.00;;;;10136053;23;20253;-70
2022/11/07 13:30:35;;;;;;;1.83;1.73;;;;;16.20;96382.00;;;;10135917;23;20190;-70
2022/11/07 13:35:06;;;;;;;2.33;1.88;;;;;16.20;96391.00;;;;10136316;23;20226;-70
2022/11/07 13:39:42;;;;;;;4.18;1.85;;;;;16.20;96402.00;;;;10135699;23;20618;-70
2022/11/07 13:43:50;;;;;;;5.40;2.00;;;;;16.20;96402.00;;;;10136065;23;20505;-70
2022/11/07 13:48:23;;;;;;;4.55;2.22;;;;;16.00;96404.00;;;;10135317;23;20205;-70
2022/11/07 13:52:34;;;;;;;3.45;1.88;;;;;15.90;96411.00;;;;10135499;23;20286;-70
2022/11/07 13:56:43;;;;;;;3.88;2.13;;;;;15.80;96420.00;;;;10135701;23;20208;-71
2022/11/07 14:01:14;;;;;;;2.00;1.90;;;;;15.70;96421.00;;;;10136447;23;20207;-70
2022/11/07 14:05:51;;;;;;;3.75;1.88;;;;;15.70;96411.00;;;;10135333;23;20578;-70
2022/11/07 14:10:31;;;;;;;4.18;2.10;;;;;15.70;96414.00;;;;10137829;23;20194;-70
2022/11/07 14:20:13;;;;;;;3.55;2.00;;;;;15.60;96426.00;;;;10138333;23;20199;-71
2022/11/07 14:24:50;;;;;;;5.55;2.00;;;;;15.70;96420.00;;;;10138697;23;20194;-70
2022/11/07 14:29:21;;;;;;;5.45;1.80;;;;;15.60;96418.00;;;;10138045;23;20266;-70
2022/11/07 14:33:59;;;;;;;2.35;1.90;;;;;15.40;96411.00;;;;10138136;23;20206;-70
2022/11/07 14:38:11;;;;;;;11.18;1.92;;;;;15.20;96415.00;;;;10138307;23;20201;-70
2022/11/07 14:42:41;;;;;;;4.60;2.10;;;;;15.10;96416.00;;;;10138138;23;20506;-70
2022/11/07 14:47:17;;;;;;;4.85;1.98;;;;;14.90;96416.00;;;;10137641;23;20268;-70
2022/11/07 14:51:55;;;;;;;3.25;1.98;;;;;14.80;96414.00;;;;10138233;23;20190;-70
2022/11/07 14:56:31;;;;;;;4.03;2.13;;;;;14.70;96407.00;;;;10137077;23;20633;-70
2022/11/07 15:01:13;;;;;;;3.78;1.83;;;;;14.60;96401.00;;;;10118996;23;20495;-71
2022/11/07 15:05:44;;;;;;;5.93;1.83;;;;;14.50;96406.00;;;;10132606;23;20257;-70
2022/11/07 15:10:23;;;;;;;2.08;1.90;;;;;14.40;96407.00;;;;10137268;23;20206;-70
2022/11/07 15:14:33;;;;;;;2.15;1.85;;;;;14.20;96411.00;;;;10137639;23;20199;-70
2022/11/07 15:19:07;;;;;;;2.03;1.80;;;;;14.10;96411.00;;;;10130505;23;20199;-70
2022/11/07 15:23:30;;;;;;;2.13;1.92;;;;;13.90;96413.00;;;;10137204;23;20226;-70
2022/11/07 15:27:46;;;;;;;4.40;1.80;;;;;13.70;96408.00;;;;10132593;23;20194;-70
2022/11/07 15:32:24;;;;;;;4.93;2.00;;;;;13.60;96412.00;;;;10136726;23;20195;-70
2022/11/07 15:36:59;;;;;;;2.53;1.88;;;;;13.40;96410.00;;;;10134679;23;20265;-70
2022/11/07 15:41:02;;;;;;;3.38;1.80;;;;;13.30;96412.00;;;;10136597;23;20195;-70
2022/11/07 15:45:39;;;;;;;5.45;2.40;;;;;13.30;96418.00;;;;10138144;23;20240;-70
2022/11/07 15:49:43;;;;;;;8.43;3.17;;;;;13.20;96406.00;;;;10129443;23;20193;-69
2022/11/07 15:54:21;;;;;;;6.68;3.88;;;;;13.00;96409.00;;;;10134754;23;20198;-69
2022/11/07 15:58:55;;;;;;;5.00;2.42;;;;;12.70;96408.00;;;;10135281;23;20205;-68
2022/11/07 16:03:32;;;;;;;5.22;2.75;;;;;12.40;96411.00;;;;10135158;23;20534;-68
2022/11/07 16:07:36;;;;;;;3.90;2.35;;;;;12.20;96410.00;;;;10136888;23;20194;-68
2022/11/07 16:11:40;;;;;;;4.03;2.25;;;;;12.10;96410.00;;;;10135390;23;20246;-68
2022/11/07 16:16:18;;;;;;;6.28;2.90;;;;;11.90;96413.00;;;;10136278;23;20245;-68
2022/11/07 16:20:23;;;;;;;7.55;3.67;;;;;11.80;96408.00;;;;10122016;23;20190;-68
2022/11/07 16:25:00;;;;;;;10.23;3.00;;;;;11.60;96417.00;;;;10136348;23;20271;-68
2022/11/07 16:29:04;;;;;;;8.38;3.70;;;;;11.60;96411.00;;;;10135782;23;20463;-68
2022/11/07 16:33:39;;;;;;;8.05;3.40;;;;;11.60;96420.00;;;;10134015;23;20190;-68
2022/11/07 16:37:42;;;;;;;7.45;3.33;;;;;11.50;96411.00;;;;10135730;23;20619;-68
2022/11/07 16:41:45;;;;;;;9.45;4.03;;;;;11.60;96416.00;;;;10135363;23;20202;-67
2022/11/07 16:45:52;;;;;;;8.68;3.90;;;;;11.60;96409.00;;;;10136570;23;20598;-68
2022/11/07 16:49:56;;;;;;;6.45;3.58;;;;;11.50;96424.00;;;;10134900;23;20202;-68
2022/11/07 16:54:32;;;;;;;4.97;3.80;;;;;11.40;96430.00;;;;10134489;23;20210;-68
2022/11/07 16:58:38;;;;;;;9.25;4.07;;;;;11.20;96424.00;;;;10134283;23;20502;-68
2022/11/07 17:02:42;;;;;;;6.30;3.75;;;;;11.00;96428.00;;;;10135543;23;20584;-68
2022/11/07 17:07:18;;;;;;;8.93;3.95;;;;;10.70;96428.00;;;;10134927;23;20619;-68
2022/11/07 17:11:21;;;;;;;6.22;4.70;;;;;10.60;96433.00;;;;10134053;23;20633;-69
2022/11/07 17:15:24;;;;;;;11.60;5.30;;;;;10.40;96425.00;;;;10120826;23;20199;-69
2022/11/07 17:20:02;;;;;;;4.43;3.70;;;;;10.20;96425.00;;;;10135177;23;20243;-69
2022/11/07 17:24:36;;;;;;;6.57;3.70;;;;;10.00;96429.00;;;;10131623;23;20194;-69
2022/11/07 17:28:39;;;;;;;8.15;4.00;;;;;9.90;96427.00;;;;10135465;23;20198;-70
2022/11/07 17:33:16;;;;;;;6.68;3.72;;;;;9.60;96431.00;;;;10133553;23;20531;-70
2022/11/07 17:37:52;;;;;;;6.90;4.38;;;;;9.50;96431.00;;;;10134794;23;20195;-69
2022/11/07 17:42:26;;;;;;;18.90;6.60;;;;;9.50;96429.00;;;;10135218;23;20199;-69
2022/11/07 17:46:31;;;;;;;6.00;3.10;;;;;9.40;96428.00;;;;10135032;23;20199;-69
2022/11/07 17:51:06;;;;;;;5.63;3.20;;;;;9.20;96431.00;;;;10134956;23;20241;-70
2022/11/07 17:55:44;;;;;;;9.48;3.95;;;;;9.10;96430.00;;;;10134099;23;20270;-70
2022/11/07 17:59:48;;;;;;;12.83;4.23;;;;;8.90;96432.00;;;;10135001;23;20205;-70
2022/11/07 18:03:52;;;;;;;6.28;3.60;;;;;8.90;96428.00;;;;10134920;23;20203;-70
2022/11/07 18:08:26;;;;;;;11.90;5.63;;;;;8.70;96427.00;;;;10134561;23;20557;-69
2022/11/07 18:13:06;;;;;;;8.20;4.80;;;;;8.60;96421.00;;;;10135538;23;20213;-69
2022/11/07 18:17:41;;;;;;;7.20;4.60;;;;;8.50;96413.00;;;;10135184;23;20204;-69
2022/11/07 18:21:44;;;;;;;6.03;4.18;;;;;8.30;96404.00;;;;10092924;23;20238;-83
2022/11/07 18:25:47;;;;;;;11.37;5.67;;;;;8.30;96406.00;;;;10080454;23;20637;-78
2022/11/07 18:29:52;;;;;;;11.63;5.43;;;;;8.30;96399.00;;;;10085637;23;20274;-77
2022/11/07 18:33:56;;;;;;;7.47;4.72;;;;;8.20;96394.00;;;;10082738;23;20258;-77
2022/11/07 18:37:59;;;;;;;9.85;4.88;;;;;8.10;96399.00;;;;10084033;23;20284;-77
2022/11/07 18:42:02;;;;;;;9.68;5.57;;;;;8.00;96397.00;;;;10076634;23;20726;-76
2022/11/07 18:46:09;;;;;;;10.00;5.00;;;;;8.00;96396.00;;;;10087048;23;20266;-76
2022/11/07 18:50:12;;;;;;;7.47;4.68;;;;;7.90;96390.00;;;;10085716;23;20195;-76
2022/11/07 18:54:15;;;;;;;10.47;4.97;;;;;7.80;96391.00;;;;10117388;23;20202;-76
2022/11/07 18:58:19;;;;;;;13.60;5.57;;;;;7.80;96389.00;;;;10120282;23;20223;-74
2022/11/07 19:02:23;;;;;;;13.07;7.60;;;;;7.80;96389.00;;;;10117434;23;20213;-77
2022/11/07 19:06:29;;;;;;;10.00;5.20;;;;;7.70;96401.00;;;;10116806;23;20202;-77
2022/11/07 19:10:33;;;;;;;11.80;5.20;;;;;7.70;96391.00;;;;10118575;23;20239;-78
2022/11/07 19:14:36;;;;;;;11.13;5.43;;;;;7.60;96396.00;;;;10119270;23;20561;-75
2022/11/07 19:18:41;;;;;;;13.50;5.37;;;;;7.50;96400.00;;;;10119282;23;20203;-75
2022/11/07 19:22:51;;;;;;;9.00;5.37;;;;;7.50;96404.00;;;;10149234;23;20202;-76
2022/11/07 19:26:54;;;;;;;11.30;5.73;;;;;7.50;96407.00;;;;10167916;23;20209;-74
2022/11/07 19:30:57;;;;;;;9.60;5.20;;;;;7.40;96412.00;;;;10166922;23;20229;-76
2022/11/07 19:35:01;;;;;;;10.57;5.47;;;;;7.40;96404.00;;;;10164776;23;20202;-73
2022/11/07 19:39:05;;;;;;;9.43;5.50;;;;;7.30;96415.00;;;;10166465;23;20206;-75
2022/11/07 19:43:08;;;;;;;14.63;5.70;;;;;7.30;96406.00;;;;10166824;23;20198;-74
2022/11/07 19:47:12;;;;;;;12.63;6.67;;;;;7.20;96412.00;;;;10164934;23;20206;-76
2022/11/07 19:51:19;;;;;;;8.60;4.97;;;;;7.20;96421.00;;;;10165008;23;20248;-77
2022/11/07 19:55:24;;;;;;;10.63;5.40;;;;;7.20;96418.00;;;;10167376;23;20205;-76
2022/11/07 19:59:28;;;;;;;17.13;6.70;;;;;7.10;96415.00;;;;10164203;23;20214;-76
2022/11/07 20:03:31;;;;;;;13.70;5.47;;;;;7.10;96408.00;;;;10166826;23;20532;-76
2022/11/07 20:07:35;;;;;;;12.43;5.37;;;;;7.10;96412.00;;;;10162771;23;20197;-79
2022/11/07 20:11:38;;;;;;;15.07;5.30;;;;;7.10;96418.00;;;;10166087;23;20544;-76
2022/11/07 20:15:42;;;;;;;9.80;5.20;;;;;7.00;96406.00;;;;10165376;23;20202;-76
2022/11/07 20:24:44;;;;;;;9.57;5.03;;;;;7.00;96427.00;;;;10184607;23;20580;-75
2022/11/07 20:29:18;;;;;;;13.17;6.20;;;;;6.90;96424.00;;;;10184566;23;20200;-74
2022/11/07 20:33:57;;;;;;;9.50;4.97;;;;;6.90;96426.00;;;;10169023;23;20626;-74
2022/11/07 20:38:31;;;;;;;13.57;6.70;;;;;6.90;96426.00;;;;10155976;23;20647;-74
2022/11/07 20:43:10;;;;;;;9.80;5.10;;;;;6.90;96414.00;;;;10169897;23;20190;-74
2022/11/07 20:47:14;;;;;;;10.27;6.30;;;;;6.80;96429.00;;;;10158002;23;20675;-74
2022/11/07 20:51:22;;;;;;;10.60;5.90;;;;;6.90;96428.00;;;;10184120;23;20252;-74
2022/11/07 20:55:25;;;;;;;15.20;5.80;;;;;6.90;96428.00;;;;10184642;23;20238;-74
2022/11/07 21:00:01;;;;;;;10.17;5.50;;;;;6.90;96426.00;;;;10184027;23;20256;-74
2022/11/07 21:04:35;;;;;;;9.10;5.50;;;;;6.80;96432.00;;;;10184116;23;20198;-73
2022/11/07 21:09:14;;;;;;;11.87;5.10;;;;;6.70;96438.00;;;;10166521;23;20202;-74
2022/11/07 21:13:51;;;;;;;13.03;5.70;;;;;6.70;96431.00;;;;10183465;23;20198;-74
2022/11/07 21:18:27;;;;;;;10.27;5.23;;;;;6.60;96426.00;;;;10182967;23;20202;-76
2022/11/07 21:22:31;;;;;;;17.17;6.27;;;;;6.50;96436.00;;;;10156522;23;20202;-76
2022/11/07 21:26:37;;;;;;;16.43;5.97;;;;;6.50;96433.00;;;;10184444;23;20253;-76
2022/11/07 21:30:40;;;;;;;13.83;6.63;;;;;6.50;96434.00;;;;10170903;23;20305;-76
2022/11/07 21:34:46;;;;;;;17.23;5.90;;;;;6.40;96437.00;;;;10185275;23;20226;-76
2022/11/07 21:39:24;;;;;;;9.27;5.63;;;;;6.40;96434.00;;;;10171389;23;20206;-76
2022/11/07 21:43:27;;;;;;;14.83;6.97;;;;;6.40;96437.00;;;;10183902;23;20186;-76
2022/11/07 21:48:03;;;;;;;11.70;6.40;;;;;6.30;96435.00;;;;10184689;23;20201;-75
2022/11/07 21:52:08;;;;;;;17.87;6.63;;;;;6.30;96436.00;;;;10183720;23;20277;-75
2022/11/07 21:56:44;;;;;;;14.57;7.00;;;;;6.30;96429.00;;;;10183118;23;21008;-75
2022/11/07 22:00:47;;;;;;;15.27;7.20;;;;;6.30;96434.00;;;;10184573;23;20257;-75
2022/11/07 22:04:51;;;;;;;13.33;7.27;;;;;6.30;96432.00;;;;10183615;23;20201;-75